Time;durP1;ratioP1;P1;durP2;ratioP2;P2;SDS_P1;SDS_P2;PMS_P1;PMS_P2;Temp;Humidity;BMP_temperature;BMP_pressure;BME280_temperature;BME280_humidity;BME280_pressure;Samples;Min_cycle;Max_cycle;Signal;HPM_P1;HPM_P2
2022/12/28 00:02:00;;;;;;;11.70;5.87;;;;;;;-0.76;100.00;99798.22;5061073;28;20551;-66
2022/12/28 00:04:26;;;;;;;13.00;5.83;;;;;;;-0.81;100.00;99810.63;5056129;28;20494;-66
2022/12/28 00:06:52;;;;;;;9.90;5.53;;;;;;;-0.95;100.00;99797.44;5061331;28;20048;-66
2022/12/28 00:09:18;;;;;;;15.30;6.23;;;;;;;-1.04;100.00;99776.88;5063592;28;20468;-64
2022/12/28 00:11:44;;;;;;;11.77;6.33;;;;;;;-0.96;100.00;99789.78;5065615;28;20144;-65
2022/12/28 00:14:09;;;;;;;9.47;5.77;;;;;;;-0.94;100.00;99789.09;5058806;28;20158;-65
2022/12/28 00:16:39;;;;;;;14.90;8.00;;;;;;;-0.95;100.00;99789.88;5060109;28;20044;-66
2022/12/28 00:19:09;;;;;;;21.97;6.43;;;;;;;-1.01;100.00;99787.06;5060774;28;20041;-65
2022/12/28 00:21:35;;;;;;;12.80;5.67;;;;;;;-1.12;100.00;99762.22;5060010;28;20040;-66
2022/12/28 00:24:04;;;;;;;11.27;4.90;;;;;;;-0.97;100.00;99776.34;5058982;28;20047;-66
2022/12/28 00:26:32;;;;;;;13.77;6.20;;;;;;;-0.99;100.00;99780.47;5060703;28;20049;-66
2022/12/28 00:29:00;;;;;;;7.97;4.90;;;;;;;-1.07;100.00;99771.72;5060493;28;20563;-65
2022/12/28 00:31:26;;;;;;;6.53;4.67;;;;;;;-1.07;100.00;99759.13;5060494;28;20039;-65
2022/12/28 00:33:52;;;;;;;9.13;5.43;;;;;;;-1.05;100.00;99780.19;5062459;28;20465;-65
2022/12/28 00:36:19;;;;;;;10.20;5.73;;;;;;;-1.23;100.00;99740.78;5061136;28;20045;-65
2022/12/28 00:38:44;;;;;;;13.50;8.83;;;;;;;-1.12;100.00;99773.16;5047047;28;20067;-66
2022/12/28 00:41:19;;;;;;;14.63;7.47;;;;;;;-1.27;100.00;99751.47;5058339;28;20499;-64
2022/12/28 00:43:45;;;;;;;14.03;7.50;;;;;;;-1.23;100.00;99768.44;5043788;28;20048;-65
2022/12/28 00:46:11;;;;;;;14.23;8.20;;;;;;;-1.40;100.00;99735.81;5063922;28;20462;-65
2022/12/28 00:48:37;;;;;;;10.57;7.63;;;;;;;-1.32;100.00;99757.94;5064277;28;20052;-65
2022/12/28 00:51:04;;;;;;;12.53;7.80;;;;;;;-1.41;100.00;99764.28;5064656;28;20032;-65
2022/12/28 00:53:30;;;;;;;15.67;8.57;;;;;;;-1.43;100.00;99767.50;5063543;28;20124;-65
2022/12/28 00:56:13;;;;;;;12.43;6.70;;;;;;;-1.43;100.00;99767.50;5061575;28;20568;-65
2022/12/28 00:58:39;;;;;;;11.03;6.30;;;;;;;-1.43;100.00;99760.81;5066359;28;20041;-65
2022/12/28 01:01:10;;;;;;;14.63;6.13;;;;;;;-1.34;100.00;99754.50;5064116;28;20047;-65
2022/12/28 01:03:36;;;;;;;13.07;6.83;;;;;;;-1.36;100.00;99762.00;5064602;28;20044;-66
2022/12/28 01:06:10;;;;;;;11.57;6.03;;;;;;;-1.40;100.00;99771.00;5063791;28;20454;-65
2022/12/28 01:08:40;;;;;;;7.50;5.30;;;;;;;-1.49;100.00;99765.59;5067937;28;20384;-65
2022/12/28 01:11:17;;;;;;;11.37;5.87;;;;;;;-1.64;100.00;99742.22;5063447;28;20131;-65
2022/12/28 01:13:43;;;;;;;11.07;5.23;;;;;;;-1.53;100.00;99773.75;5062915;28;20060;-65
2022/12/28 01:16:14;;;;;;;8.33;4.60;;;;;;;-1.51;100.00;99761.25;5060651;28;20075;-64
2022/12/28 01:18:40;;;;;;;7.43;4.73;;;;;;;-1.67;100.00;99739.59;5061016;28;20098;-65
2022/12/28 01:21:30;;;;;;;7.70;4.67;;;;;;;-1.46;100.00;99760.69;5067293;28;20067;-66
2022/12/28 01:23:58;;;;;;;9.67;3.77;;;;;;;-1.53;100.00;99733.53;5051560;28;20129;-67
2022/12/28 01:26:25;;;;;;;5.30;3.50;;;;;;;-1.35;100.00;99747.72;5059870;28;20036;-66
2022/12/28 01:28:50;;;;;;;7.53;4.30;;;;;;;-1.38;100.00;99741.78;5051552;28;20041;-66
2022/12/28 01:31:17;;;;;;;7.53;3.37;;;;;;;-1.36;100.00;99746.91;5065319;28;20573;-65
2022/12/28 01:33:43;;;;;;;5.50;3.17;;;;;;;-1.32;100.00;99751.28;5062732;28;20466;-66
2022/12/28 01:36:24;;;;;;;5.87;2.67;;;;;;;-1.39;100.00;99754.28;5062852;28;20132;-66
2022/12/28 01:38:55;;;;;;;4.97;3.00;;;;;;;-1.45;100.00;99754.00;5058493;28;20130;-65
2022/12/28 01:41:31;;;;;;;7.57;3.77;;;;;;;-1.55;100.00;99752.72;5067356;28;20491;-64
2022/12/28 01:43:59;;;;;;;7.33;3.70;;;;;;;-1.56;100.00;99750.97;5063569;28;20187;-65
2022/12/28 01:47:04;;;;;;;10.03;3.87;;;;;;;-1.57;100.00;99751.78;5065239;28;20589;-65
2022/12/28 01:49:45;;;;;;;6.20;3.37;;;;;;;-1.69;100.00;99738.63;5062202;28;20494;-65
2022/12/28 01:52:23;;;;;;;6.70;3.53;;;;;;;-1.72;100.00;99740.16;5062108;28;20045;-65
2022/12/28 01:55:18;;;;;;;6.23;2.87;;;;;;;-1.83;100.00;99727.09;5061021;28;20095;-64
2022/12/28 01:57:52;;;;;;;9.23;3.10;;;;;;;-1.79;100.00;99725.56;5058704;28;20480;-65
2022/12/28 02:00:19;;;;;;;;;;;;;;;-1.63;100.00;99740.59;5038281;28;20048;-66
2022/12/28 02:02:51;;;;;;;7.40;3.43;;;;;;;-1.61;100.00;99737.34;5052168;28;19916;-67
2022/12/28 02:05:22;;;;;;;7.40;2.70;;;;;;;-1.79;100.00;99706.34;5062889;28;20071;-66
2022/12/28 02:08:13;;;;;;;6.73;2.70;;;;;;;-1.68;100.00;99725.28;5062719;28;20538;-64
2022/12/28 02:10:40;;;;;;;8.23;3.33;;;;;;;-1.65;100.00;99719.53;5060699;28;20048;-65
2022/12/28 02:13:08;;;;;;;6.70;2.90;;;;;;;-1.62;100.00;99728.09;5061002;28;20064;-65
2022/12/28 02:15:33;;;;;;;5.87;2.90;;;;;;;-1.66;100.00;99725.38;5061581;28;20037;-66
2022/12/28 02:18:00;;;;;;;8.00;2.93;;;;;;;-1.71;100.00;99716.75;5060799;28;20052;-67
2022/12/28 02:20:54;;;;;;;2.70;2.03;;;;;;;-1.74;100.00;99724.16;5065309;28;20044;-64
2022/12/28 02:23:30;;;;;;;5.90;2.93;;;;;;;-1.71;100.00;99716.75;5060163;28;20143;-64
2022/12/28 02:26:11;;;;;;;3.70;2.33;;;;;;;-1.81;100.00;99674.38;5069238;28;20045;-65
2022/12/28 02:28:57;;;;;;;4.77;2.63;;;;;;;-1.58;100.00;99691.38;5061464;28;20274;-66
2022/12/28 02:31:25;;;;;;;4.87;3.10;;;;;;;-1.69;100.00;99667.38;5057143;28;20056;-67
2022/12/28 02:34:15;;;;;;;4.67;2.53;;;;;;;-1.55;100.00;99686.47;5062440;28;20064;-66
2022/12/28 02:36:49;;;;;;;4.30;2.80;;;;;;;-1.74;100.00;99657.13;5066052;28;20068;-66
2022/12/28 02:39:33;;;;;;;5.90;2.23;;;;;;;-1.76;100.00;99666.25;5063894;28;20119;-65
2022/12/28 02:42:00;;;;;;;6.10;3.13;;;;;;;-1.72;100.00;99685.72;5060589;28;20036;-66
2022/12/28 02:50:08;;;;;;;4.07;2.57;;;;;;;-1.81;100.00;99665.19;5065053;28;20059;-67
2022/12/28 02:52:55;;;;;;;3.30;2.30;;;;;;;-1.79;100.00;99657.72;5062236;28;20064;-63
2022/12/28 02:58:40;;;;;;;3.60;1.60;;;;;;;-1.72;100.00;99630.41;5060174;28;20051;-63
2022/12/28 03:01:43;;;;;;;7.00;2.07;;;;;;;-1.57;100.00;99647.88;5063794;28;20048;-65
2022/12/28 03:04:35;;;;;;;3.17;1.95;;;;;;;-1.64;100.00;99646.72;5048163;28;20042;-64
2022/12/28 03:10:20;;;;;;;4.87;2.50;;;;;;;-1.69;100.00;99625.53;5060667;28;20041;-65
2022/12/28 03:12:45;;;;;;;3.90;2.30;;;;;;;-1.69;100.00;99617.13;5060944;28;20436;-64
2022/12/28 03:15:30;;;;;;;4.83;1.97;;;;;;;-1.67;100.00;99621.44;5057484;28;20597;-64
2022/12/28 03:32:14;;;;;;;4.20;2.33;;;;;;;-1.63;100.00;99599.81;5061125;28;20044;-61
2022/12/28 03:34:40;;;;;;;4.53;1.57;;;;;;;-1.65;100.00;99611.44;5060673;28;20101;-62
2022/12/28 03:37:24;;;;;;;3.13;2.10;;;;;;;-1.78;100.00;99591.59;5060575;28;20067;-61
2022/12/28 03:40:21;;;;;;;4.77;1.60;;;;;;;-1.68;100.00;99604.63;5065386;28;20593;-61
2022/12/28 03:45:56;;;;;;;3.37;1.70;;;;;;;-1.83;100.00;99591.41;5059151;28;20535;-65
2022/12/28 03:48:23;;;;;;;3.90;1.57;;;;;;;-1.98;100.00;99565.56;5062216;28;20044;-61
2022/12/28 03:50:52;;;;;;;2.40;1.70;;;;;;;-2.00;100.00;99562.13;5059926;28;20036;-62
2022/12/28 03:53:35;;;;;;;2.53;1.67;;;;;;;-1.88;100.00;99586.16;5062038;28;20325;-61
2022/12/28 03:56:08;;;;;;;2.33;1.70;;;;;;;-1.92;100.00;99578.41;5061663;28;20043;-62
2022/12/28 03:58:34;;;;;;;3.23;1.93;;;;;;;-2.06;100.00;99566.88;5044381;28;20036;-62
2022/12/28 04:01:00;;;;;;;3.07;2.33;;;;;;;-2.11;100.00;99559.13;5050605;28;20510;-61
2022/12/28 04:03:25;;;;;;;1.80;1.40;;;;;;;-1.96;100.00;99584.94;5062523;28;20063;-61
2022/12/28 04:05:51;;;;;;;2.83;1.90;;;;;;;-2.07;100.00;99550.94;5059650;28;20087;-61
2022/12/28 04:08:17;;;;;;;3.70;2.60;;;;;;;-1.95;100.00;99568.19;5060190;28;20041;-62
2022/12/28 04:10:45;;;;;;;2.20;1.77;;;;;;;-1.77;100.00;99550.56;5066594;28;20113;-60
2022/12/28 04:13:14;;;;;;;2.37;1.93;;;;;;;-1.68;100.00;99568.56;5051593;28;20056;-61
2022/12/28 04:15:59;;;;;;;3.43;1.73;;;;;;;-1.74;100.00;99544.03;5076233;28;20491;-61
2022/12/28 04:18:31;;;;;;;3.17;2.13;;;;;;;-1.61;100.00;99560.53;5061506;28;20072;-68
2022/12/28 04:21:00;;;;;;;1.90;1.73;;;;;;;-1.87;100.00;99526.72;5061271;28;20036;-69
2022/12/28 04:23:27;;;;;;;3.03;2.10;;;;;;;-1.86;100.00;99549.38;5064744;28;20044;-69
2022/12/28 04:26:12;;;;;;;3.73;1.87;;;;;;;-1.97;100.00;99527.94;5064554;28;20068;-64
2022/12/28 04:28:42;;;;;;;6.10;2.10;;;;;;;-1.75;100.00;99564.94;5063582;28;20617;-66
2022/12/28 04:31:28;;;;;;;3.20;1.80;;;;;;;-1.97;100.00;99548.06;5063413;28;20467;-69
2022/12/28 04:34:04;;;;;;;3.17;1.83;;;;;;;-2.06;100.00;99537.59;5059721;28;20491;-69
2022/12/28 04:36:33;;;;;;;3.00;1.73;;;;;;;-2.07;100.00;99530.84;5067407;28;20044;-70
2022/12/28 04:39:00;;;;;;;4.40;1.60;;;;;;;-1.86;100.00;99554.41;5050732;28;20047;-69
2022/12/28 04:41:26;;;;;;;3.50;1.73;;;;;;;-1.77;100.00;99553.09;5058722;28;20048;-69
2022/12/28 04:43:53;;;;;;;4.03;1.80;;;;;;;-2.02;100.00;99528.53;5058855;28;20036;-69
2022/12/28 04:46:19;;;;;;;3.17;2.10;;;;;;;-1.87;100.00;99555.19;5060490;28;20313;-68
2022/12/28 04:48:44;;;;;;;3.47;1.47;;;;;;;-1.93;100.00;99557.44;5060896;28;20032;-69
2022/12/28 04:51:13;;;;;;;3.53;1.70;;;;;;;-1.96;100.00;99559.81;5060090;28;20040;-69
2022/12/28 04:53:40;;;;;;;7.60;2.50;;;;;;;-2.16;100.00;99532.94;5060606;28;20036;-70
2022/12/28 04:56:08;;;;;;;17.47;6.33;;;;;;;-1.95;100.00;99546.44;5060246;28;20044;-69
2022/12/28 04:58:34;;;;;;;14.63;5.60;;;;;;;-1.79;100.00;99543.00;5060641;28;20547;-69
2022/12/28 05:01:09;;;;;;;13.17;6.07;;;;;;;-1.78;100.00;99534.63;5062433;28;20095;-69
2022/12/28 05:03:40;;;;;;;9.70;4.75;;;;;;;-1.76;100.00;99534.72;5062141;28;20151;-69
2022/12/28 05:06:10;;;;;;;11.33;4.47;;;;;;;-1.86;100.00;99508.31;5060714;28;20440;-70
2022/12/28 05:08:37;;;;;;;12.67;5.57;;;;;;;-1.74;100.00;99525.59;5060583;28;20343;-69
2022/12/28 05:11:08;;;;;;;6.93;3.67;;;;;;;-1.73;100.00;99520.63;5061123;28;21077;-69
2022/12/28 05:13:34;;;;;;;7.77;3.60;;;;;;;-1.74;100.00;99520.56;5063829;28;20106;-69
2022/12/28 05:16:01;;;;;;;8.77;4.13;;;;;;;-1.80;100.00;99495.16;5062553;28;20036;-68
2022/12/28 05:18:27;;;;;;;9.13;4.77;;;;;;;-1.82;100.00;99487.53;5060780;28;20065;-68
2022/12/28 05:21:04;;;;;;;9.20;4.10;;;;;;;-1.73;100.00;99503.03;5060157;28;20902;-69
2022/12/28 05:23:31;;;;;;;9.43;3.67;;;;;;;-1.69;100.00;99516.59;5061871;28;20043;-69
2022/12/28 05:26:00;;;;;;;5.83;2.93;;;;;;;-1.80;100.00;99491.00;5061128;28;20342;-69
2022/12/28 05:28:29;;;;;;;4.63;2.17;;;;;;;-1.74;100.00;99500.47;5061567;28;20041;-70
2022/12/28 05:31:04;;;;;;;4.10;2.07;;;;;;;-1.90;100.00;99476.31;5027892;28;20075;-70
2022/12/28 05:33:32;;;;;;;5.33;3.00;;;;;;;-1.96;100.00;99469.38;5063415;28;20597;-69
2022/12/28 05:36:07;;;;;;;6.60;2.77;;;;;;;-1.73;100.00;99502.16;5054849;28;20048;-69
2022/12/28 05:38:33;;;;;;;3.97;2.40;;;;;;;-1.76;100.00;99490.34;5069576;28;20047;-70
2022/12/28 05:41:04;;;;;;;5.70;2.10;;;;;;;-1.69;100.00;99509.03;5064173;28;20105;-69
2022/12/28 05:43:33;;;;;;;4.30;2.00;;;;;;;-1.69;100.00;99511.56;5063933;28;20487;-69
2022/12/28 05:46:01;;;;;;;6.63;1.80;;;;;;;-1.76;100.00;99492.00;5059742;28;20045;-69
2022/12/28 05:48:31;;;;;;;2.10;1.57;;;;;;;-1.86;100.00;99481.53;5066283;28;20044;-69
2022/12/28 05:51:02;;;;;;;6.83;1.80;;;;;;;-1.74;100.00;99485.38;5067144;28;20152;-69
2022/12/28 05:53:30;;;;;;;7.17;2.47;;;;;;;-1.75;100.00;99473.59;5065511;28;20053;-69
2022/12/28 05:56:14;;;;;;;3.70;1.97;;;;;;;-1.57;100.00;99492.81;5062784;28;20527;-70
2022/12/28 05:58:41;;;;;;;2.23;1.90;;;;;;;-1.49;100.00;99496.56;5062756;28;20040;-70
2022/12/28 06:01:12;;;;;;;2.63;1.87;;;;;;;-1.31;100.00;99503.13;5067029;28;20032;-69
2022/12/28 06:03:38;;;;;;;3.23;1.43;;;;;;;-1.45;100.00;99487.47;5062819;28;20475;-69
2022/12/28 06:06:16;;;;;;;2.63;2.03;;;;;;;-1.48;100.00;99465.56;5065569;28;20182;-69
2022/12/28 06:08:43;;;;;;;2.53;1.37;;;;;;;-1.39;100.00;99496.13;5066927;28;20101;-69
2022/12/28 06:11:13;;;;;;;1.83;1.47;;;;;;;-1.58;100.00;99457.59;5063276;28;20039;-68
2022/12/28 06:13:39;;;;;;;3.20;1.90;;;;;;;-1.59;100.00;99470.94;5064728;28;20064;-69
2022/12/28 06:16:20;;;;;;;5.50;2.20;;;;;;;-1.40;100.00;99493.56;5064288;28;20082;-71
2022/12/28 06:18:46;;;;;;;5.27;1.97;;;;;;;-1.45;100.00;99498.41;5063639;28;20129;-68
2022/12/28 06:21:17;;;;;;;6.97;2.73;;;;;;;-1.46;100.00;99489.13;5066022;28;20048;-69
2022/12/28 06:23:44;;;;;;;5.20;2.23;;;;;;;-1.43;100.00;99495.94;5064181;28;20072;-68
2022/12/28 06:26:12;;;;;;;4.13;2.50;;;;;;;-1.31;100.00;99493.94;5063599;28;20044;-69
2022/12/28 06:28:39;;;;;;;4.20;1.77;;;;;;;-1.33;100.00;99493.03;5064847;28;20547;-68
2022/12/28 06:31:11;;;;;;;3.30;2.37;;;;;;;-1.38;100.00;99474.34;5064489;28;20045;-70
2022/12/28 06:33:37;;;;;;;2.47;1.60;;;;;;;-1.23;100.00;99459.06;5065105;28;20122;-68
2022/12/28 06:36:03;;;;;;;2.47;1.77;;;;;;;-1.15;100.00;99487.88;5064342;28;20706;-70
2022/12/28 06:38:31;;;;;;;2.47;1.70;;;;;;;-1.08;100.00;99488.19;5061948;28;20032;-68
2022/12/28 06:41:08;;;;;;;3.43;1.70;;;;;;;-1.17;100.00;99470.22;5062203;28;20055;-70
2022/12/28 06:43:36;;;;;;;4.20;1.70;;;;;;;-1.17;100.00;99477.75;5064591;28;20052;-67
2022/12/28 06:46:02;;;;;;;4.23;2.07;;;;;;;-1.10;100.00;99473.81;5064907;28;20055;-70
2022/12/28 06:48:29;;;;;;;4.63;2.03;;;;;;;-1.07;100.00;99486.53;5061889;28;20558;-69
2022/12/28 06:51:00;;;;;;;2.27;1.63;;;;;;;-1.00;100.00;99473.41;5060929;28;20054;-70
2022/12/28 06:53:32;;;;;;;3.30;1.90;;;;;;;-0.91;100.00;99471.25;5061820;28;20137;-69
2022/12/28 06:56:00;;;;;;;6.30;1.97;;;;;;;-0.88;100.00;99465.47;5062480;28;20061;-70
2022/12/28 06:58:28;;;;;;;8.00;1.80;;;;;;;-0.87;100.00;99459.63;5060149;28;20123;-70
2022/12/28 07:00:54;;;;;;;4.20;2.37;;;;;;;-0.93;100.00;99438.47;5060868;28;20071;-69
2022/12/28 07:03:21;;;;;;;3.57;2.03;;;;;;;-0.93;100.00;99435.09;5051663;28;20040;-69
2022/12/28 07:05:46;;;;;;;2.60;1.60;;;;;;;-0.82;100.00;99455.66;5050408;28;20040;-69
2022/12/28 07:08:14;;;;;;;3.50;2.47;;;;;;;-0.86;100.00;99432.03;5058232;28;20047;-69
2022/12/28 07:10:43;;;;;;;4.10;2.63;;;;;;;-0.61;100.00;99442.25;5064712;28;20068;-65
2022/12/28 07:13:08;;;;;;;6.70;1.97;;;;;;;-0.63;100.00;99445.47;5060823;28;20060;-66
2022/12/28 07:15:35;;;;;;;3.37;2.43;;;;;;;-0.74;100.00;99414.88;5049437;28;20500;-67
2022/12/28 07:18:01;;;;;;;3.87;2.00;;;;;;;-0.56;100.00;99427.31;5059479;28;20032;-70
2022/12/28 07:20:27;;;;;;;2.67;1.77;;;;;;;-0.56;100.00;99414.72;5062826;28;20047;-69
2022/12/28 07:22:53;;;;;;;2.30;2.10;;;;;;;-0.50;100.00;99410.75;5061223;28;20418;-68
2022/12/28 07:25:19;;;;;;;2.87;1.90;;;;;;;-0.45;100.00;99410.91;5060571;28;20052;-67
2022/12/28 07:27:45;;;;;;;4.17;2.10;;;;;;;-0.38;100.00;99412.03;5064437;28;20453;-68
2022/12/28 07:30:11;;;;;;;4.20;1.90;;;;;;;-0.31;100.00;99424.88;5059309;28;20575;-67
2022/12/28 07:32:39;;;;;;;4.53;3.47;;;;;;;-0.17;100.00;99431.25;5062828;28;20177;-68
2022/12/28 07:35:06;;;;;;;8.43;3.77;;;;;;;-0.27;100.00;99420.81;5060889;28;20052;-69
2022/12/28 07:37:32;;;;;;;10.60;3.10;;;;;;;-0.26;100.00;99405.75;5059926;28;20130;-68
2022/12/28 07:40:00;;;;;;;4.47;2.43;;;;;;;-0.21;100.00;99395.84;5056620;28;20098;-67
2022/12/28 07:42:28;;;;;;;4.93;2.70;;;;;;;0.03;100.00;99418.53;5043984;28;20062;-69
2022/12/28 07:44:53;;;;;;;7.17;3.07;;;;;;;-0.10;100.00;99397.09;5062800;28;20554;-70
2022/12/28 07:47:19;;;;;;;5.63;3.33;;;;;;;-0.08;100.00;99401.34;5063839;28;20028;-68
2022/12/28 07:49:45;;;;;;;5.63;3.23;;;;;;;0.18;100.00;99422.44;5059386;28;20048;-68
2022/12/28 07:52:10;;;;;;;4.67;2.63;;;;;;;0.12;100.00;99408.78;5063670;28;20037;-68
2022/12/28 07:54:36;;;;;;;4.57;2.97;;;;;;;0.16;100.00;99413.13;5066784;28;20052;-67
2022/12/28 07:57:02;;;;;;;5.13;3.47;;;;;;;0.37;100.00;99431.50;5062977;28;20147;-68
2022/12/28 07:59:31;;;;;;;7.50;3.90;;;;;;;0.53;100.00;99432.88;5059382;28;20086;-68
2022/12/28 08:02:00;;;;;;;7.00;4.50;;;;;;;0.52;100.00;99421.03;5053598;28;20135;-67
2022/12/28 08:04:26;;;;;;;5.70;3.57;;;;;;;0.54;100.00;99430.41;5057338;28;20102;-65
2022/12/28 08:06:51;;;;;;;7.03;3.87;;;;;;;0.64;100.00;99434.06;5060969;28;20554;-74
2022/12/28 08:09:17;;;;;;;7.80;4.27;;;;;;;0.54;100.00;99405.19;5058520;28;20040;-63
2022/12/28 08:11:44;;;;;;;6.13;3.47;;;;;;;0.59;100.00;99413.75;5056488;28;20059;-63
2022/12/28 08:14:11;;;;;;;5.53;3.93;;;;;;;0.57;100.00;99411.97;5059041;28;20060;-64
2022/12/28 08:16:39;;;;;;;5.27;3.20;;;;;;;0.67;100.00;99437.56;5058364;28;20072;-64
2022/12/28 08:19:08;;;;;;;6.27;3.83;;;;;;;0.65;100.00;99421.50;5062020;28;20055;-64
2022/12/28 08:21:37;;;;;;;4.87;3.00;;;;;;;0.76;100.00;99444.59;5057527;28;20494;-64
2022/12/28 08:24:04;;;;;;;5.67;3.57;;;;;;;0.81;100.00;99416.16;5058798;28;20313;-64
2022/12/28 08:26:38;;;;;;;5.43;3.37;;;;;;;0.98;100.00;99436.03;5059735;28;20041;-67
2022/12/28 08:29:07;;;;;;;6.67;3.57;;;;;;;0.93;100.00;99407.25;5061487;28;20126;-63
2022/12/28 08:31:36;;;;;;;7.97;3.80;;;;;;;1.00;100.00;99424.31;5064270;28;20040;-63
2022/12/28 08:34:05;;;;;;;7.33;3.23;;;;;;;1.16;100.00;99445.03;5060686;28;20437;-63
2022/12/28 08:36:31;;;;;;;4.83;2.90;;;;;;;1.13;100.00;99439.03;5058608;28;20069;-63
2022/12/28 08:39:00;;;;;;;6.57;2.50;;;;;;;1.22;100.00;99447.75;5062151;28;20131;-64
2022/12/28 08:41:30;;;;;;;3.37;2.47;;;;;;;1.23;100.00;99421.66;5058137;28;20044;-63
2022/12/28 08:43:56;;;;;;;6.00;2.37;;;;;;;1.55;100.00;99432.75;5055993;28;20049;-64
2022/12/28 08:46:24;;;;;;;3.93;2.00;;;;;;;1.66;100.00;99433.91;5057396;28;20486;-64
2022/12/28 08:48:52;;;;;;;3.03;2.43;;;;;;;1.91;100.00;99450.63;5059670;28;20050;-64
2022/12/28 08:51:20;;;;;;;3.63;1.93;;;;;;;1.95;100.00;99456.66;5061964;28;20044;-64
2022/12/28 08:53:46;;;;;;;2.77;2.03;;;;;;;2.04;100.00;99444.25;5061433;28;20052;-64
2022/12/28 08:56:26;;;;;;;2.63;2.10;;;;;;;2.25;100.00;99429.66;5049188;28;20028;-65
2022/12/28 08:58:52;;;;;;;4.30;2.67;;;;;;;2.48;100.00;99442.91;5055581;28;20048;-65
2022/12/28 09:01:27;;;;;;;3.30;2.90;;;;;;;2.74;100.00;99457.97;5059381;28;20079;-65
2022/12/28 09:03:55;;;;;;;4.00;1.90;;;;;;;2.96;100.00;99450.91;5061627;28;20044;-65
2022/12/28 09:06:23;;;;;;;2.87;2.53;;;;;;;3.26;100.00;99453.31;5063753;28;20556;-63
2022/12/28 09:08:51;;;;;;;3.03;2.30;;;;;;;3.25;100.00;99457.50;5059661;28;20443;-64
2022/12/28 09:11:19;;;;;;;4.73;2.33;;;;;;;3.42;100.00;99430.88;5060764;28;20399;-65
2022/12/28 09:13:48;;;;;;;4.47;2.20;;;;;;;3.89;100.00;99456.38;5061007;28;20125;-63
2022/12/28 09:16:16;;;;;;;2.17;1.90;;;;;;;4.10;100.00;99449.22;5061451;28;20165;-63
2022/12/28 09:18:44;;;;;;;4.27;2.33;;;;;;;4.48;100.00;99444.84;5059222;28;20040;-63
2022/12/28 09:21:13;;;;;;;6.97;2.40;;;;;;;4.69;100.00;99439.28;5061006;28;20036;-64
2022/12/28 09:23:43;;;;;;;4.07;2.50;;;;;;;4.71;100.00;99420.69;5063707;28;20041;-63
2022/12/28 09:26:14;;;;;;;3.03;2.17;;;;;;;4.81;100.00;99422.56;5063175;28;20076;-64
2022/12/28 09:28:52;;;;;;;3.47;2.47;;;;;;;5.08;100.00;99442.50;5058592;28;20087;-64
2022/12/28 09:31:19;;;;;;;3.97;2.43;;;;;;;5.32;100.00;99435.25;5059141;28;20131;-64
2022/12/28 09:34:00;;;;;;;4.23;2.57;;;;;;;5.59;100.00;99439.88;5063516;28;20043;-66
2022/12/28 09:36:35;;;;;;;4.47;3.20;;;;;;;6.03;100.00;99447.25;5057569;28;20124;-65
2022/12/28 09:39:23;;;;;;;4.37;2.60;;;;;;;6.23;100.00;99451.75;5060192;28;20048;-63
2022/12/28 09:41:54;;;;;;;4.93;3.30;;;;;;;6.47;100.00;99438.41;5059163;28;20795;-67
2022/12/28 09:44:28;;;;;;;5.60;2.97;;;;;;;6.67;100.00;99433.50;5061887;28;20045;-64
2022/12/28 09:47:11;;;;;;;5.68;3.30;;;;;;;6.70;100.00;99429.31;5065185;28;20048;-66
2022/12/28 09:50:10;;;;;;;3.90;3.47;;;;;;;6.68;100.00;99425.91;5049118;28;20059;-65
2022/12/28 09:52:51;;;;;;;5.90;4.00;;;;;;;6.67;100.00;99411.44;5058604;28;20048;-62
2022/12/28 09:55:18;;;;;;;5.97;3.77;;;;;;;6.73;100.00;99408.09;5062803;28;20036;-64
2022/12/28 09:57:47;;;;;;;6.87;4.27;;;;;;;6.65;100.00;99399.53;5059334;28;20044;-64
2022/12/28 10:00:37;;;;;;;5.50;3.33;;;;;;;6.83;100.00;99412.44;5061466;28;20036;-65
2022/12/28 10:03:13;;;;;;;4.33;3.30;;;;;;;6.86;100.00;99420.13;5059967;28;20447;-64
2022/12/28 10:05:39;;;;;;;4.47;3.17;;;;;;;6.85;100.00;99409.06;5064637;28;20132;-63
2022/12/28 10:08:05;;;;;;;4.27;3.27;;;;;;;6.72;100.00;99391.97;5062301;28;20050;-64
2022/12/28 10:10:31;;;;;;;8.27;4.20;;;;;;;6.79;100.00;99403.91;5063667;28;20044;-65
2022/12/28 10:13:07;;;;;;;4.30;3.50;;;;;;;6.81;100.00;99409.88;5062357;28;20056;-65
2022/12/28 10:15:32;;;;;;;6.87;3.03;;;;;;;6.82;100.00;99395.44;5060448;28;20047;-65
2022/12/28 10:18:00;;;;;;;5.03;3.83;;;;;;;6.96;100.00;99418.50;5063164;28;20595;-66
2022/12/28 10:20:26;;;;;;;4.60;3.90;;;;;;;6.95;100.00;99424.44;5061988;28;20085;-65
2022/12/28 10:22:54;;;;;;;7.43;4.33;;;;;;;6.66;100.00;99396.97;5062463;28;20172;-65
2022/12/28 10:25:23;;;;;;;11.37;6.00;;;;;;;6.75;100.00;99416.59;5059742;28;20543;-65
2022/12/28 10:27:49;;;;;;;8.80;5.27;;;;;;;6.77;100.00;99403.03;5059590;28;20044;-64
2022/12/28 10:30:25;;;;;;;7.47;5.47;;;;;;;6.83;100.00;99409.91;5059863;28;20468;-65
2022/12/28 10:32:58;;;;;;;9.57;6.47;;;;;;;6.88;100.00;99405.66;5061808;28;20088;-69
2022/12/28 10:35:38;;;;;;;7.93;5.50;;;;;;;7.02;100.00;99393.03;5055073;28;20052;-70
2022/12/28 10:38:48;;;;;;;10.43;5.87;;;;;;;7.23;100.00;99394.03;5055098;28;20032;-69
2022/12/28 10:41:15;;;;;;;8.30;5.40;;;;;;;7.29;100.00;99360.94;5061283;28;20032;-70
2022/12/28 10:43:56;;;;;;;11.13;5.80;;;;;;;7.64;100.00;99373.84;5063343;28;20467;-70
2022/12/28 10:46:23;;;;;;;9.87;5.57;;;;;;;7.60;100.00;99361.94;5059952;28;20492;-70
2022/12/28 10:48:52;;;;;;;6.60;5.13;;;;;;;7.78;100.00;99359.47;5057466;28;20450;-69
2022/12/28 10:51:20;;;;;;;5.33;4.30;;;;;;;7.61;100.00;99342.38;5059615;28;20541;-70
2022/12/28 10:53:54;;;;;;;7.37;4.97;;;;;;;7.71;100.00;99350.09;5062786;28;20036;-70
2022/12/28 10:56:31;;;;;;;7.27;5.13;;;;;;;7.49;100.00;99334.66;5064213;28;20033;-69
2022/12/28 10:59:18;;;;;;;8.40;5.53;;;;;;;7.49;100.00;99347.41;5059444;28;20032;-69
2022/12/28 11:01:44;;;;;;;7.57;4.93;;;;;;;7.58;100.00;99338.13;5063492;28;20044;-70
2022/12/28 11:04:21;;;;;;;5.60;4.13;;;;;;;7.67;100.00;99337.31;5062397;28;20101;-70
2022/12/28 11:06:59;;;;;;;7.23;4.37;;;;;;;7.52;100.00;99310.00;5061946;28;20048;-68
2022/12/28 11:09:27;;;;;;;7.70;4.13;;;;;;;7.62;100.00;99319.41;5062599;28;20170;-64
2022/12/28 11:12:23;;;;;;;6.37;4.20;;;;;;;7.54;100.00;99331.31;5062709;28;20101;-66
2022/12/28 11:14:51;;;;;;;7.10;6.40;;;;;;;7.42;100.00;99330.41;5058041;28;20080;-65
2022/12/28 11:17:21;;;;;;;11.10;5.03;;;;;;;7.45;100.00;99323.59;5057933;28;20048;-67
2022/12/28 11:19:51;;;;;;;4.93;4.17;;;;;;;7.32;100.00;99292.09;5059982;28;20120;-66
2022/12/28 11:22:23;;;;;;;13.13;4.73;;;;;;;7.33;100.00;99287.84;5060595;28;20094;-66
2022/12/28 11:24:49;;;;;;;9.60;4.40;;;;;;;7.48;100.00;99304.91;5063319;28;20045;-65
2022/12/28 11:27:21;;;;;;;6.57;5.23;;;;;;;7.48;100.00;99303.19;5058897;28;20044;-66
2022/12/28 11:29:49;;;;;;;11.53;5.57;;;;;;;7.39;100.00;99280.19;5058958;28;20471;-66
2022/12/28 11:36:01;;;;;;;8.87;6.10;;;;;;;7.57;100.00;99292.19;5054078;28;20351;-66
2022/12/28 11:38:42;;;;;;;6.75;5.10;;;;;;;7.47;100.00;99282.81;5057832;28;20444;-67
2022/12/28 11:41:38;;;;;;;9.23;5.20;;;;;;;7.52;100.00;99292.16;5059956;28;20045;-68
2022/12/28 11:44:04;;;;;;;6.72;4.75;;;;;;;7.45;100.00;99282.78;5046848;28;20048;-69
2022/12/28 11:46:30;;;;;;;7.47;4.43;;;;;;;7.38;100.00;99281.06;5060617;28;20048;-66
2022/12/28 11:49:34;;;;;;;6.17;4.50;;;;;;;7.09;100.00;99277.50;5061353;28;20557;-67
2022/12/28 11:52:29;;;;;;;6.83;4.47;;;;;;;7.10;100.00;99274.97;5059864;28;20052;-68
2022/12/28 11:54:57;;;;;;;5.13;4.57;;;;;;;7.03;100.00;99265.59;5060932;28;20044;-69
2022/12/28 11:57:37;;;;;;;7.30;4.37;;;;;;;7.15;100.00;99267.34;5061362;28;20142;-68
2022/12/28 12:00:18;;;;;;;6.93;4.47;;;;;;;7.13;100.00;99239.28;5060990;28;20462;-67
2022/12/28 12:02:49;;;;;;;5.90;4.67;;;;;;;7.24;100.00;99260.59;5058090;28;20055;-68
2022/12/28 12:05:51;;;;;;;7.47;4.80;;;;;;;7.29;100.00;99238.53;5061478;28;20050;-67
2022/12/28 12:08:17;;;;;;;7.13;5.50;;;;;;;7.27;100.00;99231.69;4986154;28;20171;-68
2022/12/28 12:10:47;;;;;;;7.30;5.33;;;;;;;7.40;100.00;99232.59;4987735;28;20085;-69
2022/12/28 12:13:25;;;;;;;7.17;4.93;;;;;;;7.30;100.00;99206.19;4998119;28;20050;-69
2022/12/28 12:16:08;;;;;;;6.60;5.47;;;;;;;7.42;100.00;99223.25;5001842;28;20567;-67
2022/12/28 12:19:07;;;;;;;10.82;5.45;;;;;;;7.45;100.00;99207.94;5006713;28;20045;-67
2022/12/28 12:21:45;;;;;;;8.10;5.67;;;;;;;7.38;100.00;99193.50;4994776;28;20072;-66